Terminal Aerodrome Forecast
Issued by NWS Omaha/Valley, NE

Home | Current Version | Previous Version | Text Only | Print | Product List | Glossary On
Versions: 1 2 3 4 5 6 7 8 9 10 11 12 13 14 15 16 17 18 19 20 21 22 23 24 25 26 27 28 29 30 31 32 33 34 35 36 37 38 39 40 41 42 43 44 45 46
000
FTUS43 KOAX 241739 AAB
TAFOFK
TAF AMD
KOFK 241739Z 2418/2518 07012KT P6SM BKN006 OVC014
      TEMPO 2420/2422 5SM -SN
     FM242200 04012KT 3SM -SN BR OVC008
      TEMPO 2500/2502 1SM -SN BR OVC003
     FM250200 02012KT 1SM -SN BR OVC008
     FM250500 35015KT 2SM -SN BLSN OVC003
     FM250800 33022G30KT 3SM -SN BLSN OVC008=

USA.gov is the U.S. government's official web portal to all federal, state and local government web resources and services.